Cottonwood Airport (P52)
Cottonwood, AZ
Field Elevation: 3562
Lat: 34°43.80N  Long: 112°02.10W
CTAF/Unicom Freq: 122.7000
   
    
Weather Advisories
2016-05-06   16:50 Z
Altimeter 29.90" Hg
Wind 150° @ 11 KT
Gusts 16 KT
Visibility 10 SM
Temperature 20° C (68° F)
Dewpoint 1° C (34° F)
Relative Humidity 28%
Density Altitude 4,900 feet
Condensation Altitude 13,300 feet
Wind and Runways
Indicated Runway = 14
Headwind = 11 kt
Crosswind = 2 kt
History
 
 
 
More Info
NOAA Forecast
 
 
About Us
Belfort Instrument
 
 
FAA Disclaimer: The data displayed is for advisory purposes only and is not to be used for flight planning or operations. For official data, please call (not available) to hear the current automated AWOS voice message.
  METAR P52 061650Z AUTO 15011G16KT 10 SM 20/01 A2990